createdAt,value
2019-04-10T00:00:08.948Z,1.50
2019-04-10T00:02:37.970Z,1.60
2019-04-10T00:05:07.624Z,1.20
2019-04-10T00:07:37.496Z,1.30
2019-04-10T00:10:07.726Z,1.80
2019-04-10T00:12:36.754Z,1.70
2019-04-10T00:15:05.820Z,2.13
2019-04-10T00:17:35.403Z,2.10
2019-04-10T00:20:04.739Z,1.40
2019-04-10T00:22:34.081Z,1.40
2019-04-10T00:25:04.217Z,1.53
2019-04-10T00:27:33.262Z,1.70
2019-04-10T00:30:02.928Z,1.43
2019-04-10T00:32:32.152Z,1.57
2019-04-10T00:35:02.413Z,1.93
2019-04-10T00:37:32.610Z,1.60
2019-04-10T00:40:03.279Z,1.87
2019-04-10T00:42:32.808Z,1.50
2019-04-10T00:45:02.041Z,1.70
2019-04-10T00:47:31.141Z,2.13
2019-04-10T00:50:00.115Z,1.97
2019-04-10T00:52:30.323Z,2.20
2019-04-10T00:54:59.465Z,2.30
2019-04-10T00:57:29.554Z,2.03
2019-04-10T00:59:58.908Z,1.57
2019-04-10T01:02:28.976Z,1.53
2019-04-10T01:04:58.433Z,1.73
2019-04-10T01:07:37.563Z,1.93
2019-04-10T01:09:58.161Z,1.67
2019-04-10T01:12:27.971Z,1.53
2019-04-10T01:14:58.095Z,2.40
2019-04-10T01:17:27.202Z,2.47
2019-04-10T01:19:56.504Z,1.93
2019-04-10T01:22:25.532Z,2.07
2019-04-10T01:24:54.498Z,1.70
2019-04-10T01:27:23.675Z,2.70
2019-04-10T01:29:53.672Z,1.83
2019-04-10T01:32:23.703Z,1.80
2019-04-10T01:34:53.913Z,2.20
2019-04-10T01:37:23.015Z,1.80
2019-04-10T01:39:52.811Z,1.70
2019-04-10T01:42:22.789Z,2.10
2019-04-10T01:44:51.846Z,1.60
2019-04-10T01:47:21.347Z,1.43
2019-04-10T01:49:50.526Z,1.30
2019-04-10T01:52:20.588Z,1.70
2019-04-10T01:54:49.639Z,1.80
2019-04-10T01:57:18.647Z,1.67
2019-04-10T01:59:47.937Z,1.40
2019-04-10T02:02:31.643Z,1.73
2019-04-10T02:05:00.748Z,1.47
2019-04-10T02:07:29.990Z,1.93
2019-04-10T02:09:59.513Z,1.80
2019-04-10T02:12:28.741Z,1.43
2019-04-10T02:14:57.656Z,1.80
2019-04-10T02:17:26.642Z,2.07
2019-04-10T02:19:56.715Z,2.40
2019-04-10T02:22:26.606Z,2.30
2019-04-10T02:24:55.657Z,1.50
2019-04-10T02:27:24.610Z,1.57
2019-04-10T02:29:53.566Z,1.77
2019-04-10T02:32:24.108Z,1.60
2019-04-10T02:34:53.737Z,2.10
2019-04-10T02:37:25.055Z,1.83
2019-04-10T02:39:59.926Z,2.20
2019-04-10T02:42:26.770Z,1.87
2019-04-10T02:44:57.642Z,2.33
2019-04-10T02:47:28.248Z,2.27
2019-04-10T02:49:57.342Z,1.73
2019-04-10T02:52:26.302Z,1.80
2019-04-10T02:54:55.306Z,2.00
2019-04-10T02:57:25.464Z,1.87
2019-04-10T02:59:55.776Z,1.80
2019-04-10T03:02:26.443Z,1.90
2019-04-10T03:04:57.114Z,2.33
2019-04-10T03:07:28.199Z,1.57
2019-04-10T03:10:08.814Z,2.07
2019-04-10T03:12:28.490Z,2.07
2019-04-10T03:14:59.185Z,2.33
2019-04-10T03:17:28.790Z,1.80
2019-04-10T03:19:58.814Z,1.73
2019-04-10T03:22:28.936Z,1.77
2019-04-10T03:24:57.955Z,2.03
2019-04-10T03:27:28.033Z,2.07
2019-04-10T03:29:57.111Z,1.77
2019-04-10T03:32:55.883Z,2.23
2019-04-10T03:35:27.407Z,2.20
2019-04-10T03:37:57.314Z,2.43
2019-04-10T03:40:27.142Z,2.00
2019-04-10T03:42:57.233Z,1.80
2019-04-10T03:45:26.489Z,1.73
2019-04-10T03:47:56.242Z,1.23
2019-04-10T03:50:25.854Z,1.60
2019-04-10T03:52:55.879Z,2.30
2019-04-10T03:55:25.205Z,2.97
2019-04-10T03:57:55.232Z,1.90
2019-04-10T04:00:24.322Z,1.90
2019-04-10T04:02:53.856Z,1.90
2019-04-10T04:05:22.930Z,2.20
2019-04-10T04:07:51.934Z,1.90
2019-04-10T04:10:20.811Z,1.90
2019-04-10T04:12:49.735Z,1.70
2019-04-10T04:15:19.917Z,2.13
2019-04-10T04:17:48.894Z,2.30
2019-04-10T04:20:18.988Z,1.67
2019-04-10T04:22:48.127Z,2.63
2019-04-10T04:25:17.120Z,2.13
2019-04-10T04:27:46.392Z,2.30
2019-04-10T04:30:16.900Z,1.53
2019-04-10T04:32:46.302Z,1.50
2019-04-10T04:35:15.417Z,2.77
2019-04-10T04:37:44.543Z,2.13
2019-04-10T04:40:13.555Z,1.63
2019-04-10T04:42:42.766Z,1.70
2019-04-10T04:45:12.686Z,1.90
2019-04-10T04:47:41.907Z,2.10
2019-04-10T04:50:11.914Z,1.60
2019-04-10T04:52:41.231Z,1.67
2019-04-10T04:55:10.611Z,2.20
2019-04-10T04:57:40.751Z,1.70
2019-04-10T05:00:10.736Z,1.90
2019-04-10T05:02:39.879Z,1.80
2019-04-10T05:05:09.087Z,1.77
2019-04-10T05:07:38.166Z,2.50
2019-04-10T05:10:09.092Z,1.83
2019-04-10T05:12:38.159Z,2.37
2019-04-10T05:15:09.435Z,2.23
2019-04-10T05:17:39.377Z,1.80
2019-04-10T05:20:09.184Z,1.97
2019-04-10T05:22:38.202Z,1.73
2019-04-10T05:25:07.454Z,2.10
2019-04-10T05:27:37.146Z,2.10
2019-04-10T05:30:06.581Z,2.43
2019-04-10T05:32:35.618Z,1.97
2019-04-10T05:35:07.395Z,1.93
2019-04-10T05:37:36.199Z,1.77
2019-04-10T05:40:06.110Z,1.60
2019-04-10T05:42:35.280Z,2.57
2019-04-10T05:45:05.326Z,1.50
2019-04-10T05:47:34.544Z,2.00
2019-04-10T05:50:04.021Z,2.23
2019-04-10T05:52:33.277Z,1.63
2019-04-10T05:55:02.541Z,2.10
2019-04-10T05:57:31.587Z,2.63
2019-04-10T06:00:00.563Z,2.70
2019-04-10T06:02:29.968Z,2.40
2019-04-10T06:05:02.324Z,1.73
2019-04-10T06:07:31.416Z,1.97
2019-04-10T06:10:05.004Z,2.20
2019-04-10T06:12:31.199Z,2.17
2019-04-10T06:15:00.090Z,2.47
2019-04-10T06:17:30.164Z,2.33
2019-04-10T06:19:59.194Z,2.50
2019-04-10T06:22:28.470Z,2.17
2019-04-10T06:24:57.452Z,1.80
2019-04-10T06:27:26.436Z,2.63
2019-04-10T06:29:55.481Z,2.20
2019-04-10T06:32:25.513Z,2.43
2019-04-10T06:34:55.301Z,2.33
2019-04-10T06:37:24.507Z,2.93
2019-04-10T06:40:05.073Z,1.80
2019-04-10T06:42:24.517Z,2.70
2019-04-10T06:44:54.379Z,3.43
2019-04-10T06:47:24.381Z,2.60
2019-04-10T06:49:53.354Z,3.30
2019-04-10T06:52:23.531Z,2.23
2019-04-10T06:54:53.943Z,3.00
2019-04-10T06:57:23.142Z,3.53
2019-04-10T06:59:52.429Z,2.80
2019-04-10T07:02:27.294Z,2.57
2019-04-10T07:04:55.978Z,2.60
2019-04-10T07:07:25.460Z,2.60
2019-04-10T07:09:55.141Z,2.83
2019-04-10T07:12:27.725Z,2.73
2019-04-10T07:14:58.011Z,2.20
2019-04-10T07:17:25.652Z,2.40
2019-04-10T07:19:55.600Z,2.47
2019-04-10T07:22:24.897Z,2.50
2019-04-10T07:24:54.470Z,3.10
2019-04-10T07:27:23.738Z,2.87
2019-04-10T07:29:57.351Z,2.57
2019-04-10T07:32:24.393Z,3.40
2019-04-10T07:34:56.444Z,2.63
2019-04-10T07:37:25.531Z,3.53
2019-04-10T07:39:55.157Z,2.97
2019-04-10T07:42:29.379Z,3.23
2019-04-10T07:44:56.414Z,2.97
2019-04-10T07:47:25.610Z,3.40
2019-04-10T07:49:54.659Z,3.03
2019-04-10T07:52:24.068Z,3.60
2019-04-10T07:54:54.474Z,3.20
2019-04-10T07:57:24.520Z,3.20
2019-04-10T07:59:54.589Z,3.73
2019-04-10T08:02:23.679Z,3.27
2019-04-10T08:04:53.691Z,3.77
2019-04-10T08:07:29.418Z,3.50
2019-04-10T08:09:54.038Z,3.47
2019-04-10T08:12:23.319Z,3.67
2019-04-10T08:14:52.265Z,3.80
2019-04-10T08:17:21.786Z,3.53
2019-04-10T08:19:50.993Z,3.37
2019-04-10T08:22:20.155Z,3.77
2019-04-10T08:24:49.329Z,4.03
2019-04-10T08:27:19.260Z,3.20
2019-04-10T08:29:48.500Z,3.43
2019-04-10T08:32:18.114Z,3.43
2019-04-10T08:34:47.199Z,3.63
2019-04-10T08:37:17.268Z,3.10
2019-04-10T08:39:49.177Z,2.77
2019-04-10T08:42:18.918Z,3.13
2019-04-10T08:44:48.663Z,3.80
2019-04-10T08:47:17.831Z,3.53
2019-04-10T08:49:47.414Z,3.93
2019-04-10T08:52:16.659Z,3.10
2019-04-10T08:54:45.734Z,3.30
2019-04-10T08:57:14.813Z,2.80
2019-04-10T08:59:44.544Z,3.17
2019-04-10T09:02:14.749Z,3.50
2019-04-10T09:04:45.350Z,3.60
2019-04-10T09:07:14.386Z,3.17
2019-04-10T09:09:43.335Z,3.07
2019-04-10T09:12:13.385Z,3.10
2019-04-10T09:14:43.414Z,3.67
2019-04-10T09:17:13.246Z,3.40
2019-04-10T09:19:42.498Z,2.83
2019-04-10T09:22:12.054Z,4.03
2019-04-10T09:24:41.107Z,3.40
2019-04-10T09:27:10.942Z,3.83
2019-04-10T09:29:40.393Z,4.10
2019-04-10T09:32:11.105Z,3.57
2019-04-10T09:34:40.343Z,3.87
2019-04-10T09:37:10.071Z,4.03
2019-04-10T09:39:39.220Z,3.20
2019-04-10T09:42:08.717Z,2.87
2019-04-10T09:44:38.016Z,3.23
2019-04-10T09:47:07.775Z,2.77
2019-04-10T09:49:42.032Z,3.13
2019-04-10T09:52:07.904Z,3.70
2019-04-10T09:54:38.153Z,3.90
2019-04-10T09:57:07.283Z,3.80
2019-04-10T09:59:39.290Z,3.73
2019-04-10T10:02:07.126Z,3.33
2019-04-10T10:04:36.248Z,3.50
2019-04-10T10:07:06.181Z,3.53
2019-04-10T10:09:39.044Z,2.70
2019-04-10T10:12:11.566Z,3.30
2019-04-10T10:14:42.277Z,3.03
2019-04-10T10:17:12.586Z,3.40
2019-04-10T10:19:42.516Z,3.50
2019-04-10T10:22:12.651Z,2.73
2019-04-10T10:24:42.637Z,2.90
2019-04-10T10:27:11.760Z,3.43
2019-04-10T10:29:41.866Z,3.00
2019-04-10T10:32:11.112Z,3.03
2019-04-10T10:34:40.814Z,3.10
2019-04-10T10:37:10.872Z,3.10
2019-04-10T10:39:41.083Z,3.07
2019-04-10T10:42:10.314Z,2.60
2019-04-10T10:44:40.436Z,2.67
2019-04-10T10:47:09.554Z,2.67
2019-04-10T10:49:38.830Z,2.87
2019-04-10T10:52:08.958Z,2.70
2019-04-10T10:54:38.087Z,2.83
2019-04-10T10:57:07.343Z,2.63
2019-04-10T10:59:37.641Z,2.37
2019-04-10T11:02:07.247Z,2.40
2019-04-10T11:04:36.136Z,2.73
2019-04-10T11:07:05.215Z,2.37
2019-04-10T11:09:35.955Z,2.93
2019-04-10T11:12:06.665Z,3.10
2019-04-10T11:14:36.120Z,2.60
2019-04-10T11:17:06.306Z,2.60
2019-04-10T11:19:35.633Z,2.93
2019-04-10T11:22:05.670Z,2.40
2019-04-10T11:24:35.648Z,2.33
2019-04-10T11:27:06.399Z,2.47
2019-04-10T11:29:37.549Z,2.40
2019-04-10T11:32:06.787Z,2.93
2019-04-10T11:34:36.128Z,2.17
2019-04-10T11:37:19.195Z,3.00
2019-04-10T11:39:40.438Z,2.50
2019-04-10T11:42:06.889Z,2.20
2019-04-10T11:44:39.596Z,3.27
2019-04-10T11:47:09.417Z,2.70
2019-04-10T11:49:42.878Z,2.60
2019-04-10T11:52:10.518Z,2.47
2019-04-10T11:54:41.577Z,2.50
2019-04-10T11:57:13.207Z,2.30
2019-04-10T11:59:44.770Z,2.47
2019-04-10T12:02:14.285Z,2.33
2019-04-10T12:04:50.420Z,2.50
2019-04-10T12:07:48.146Z,2.73
2019-04-10T12:12:15.757Z,2.60
2019-04-10T12:14:45.692Z,2.13
2019-04-10T12:17:16.047Z,2.50
2019-04-10T12:19:45.211Z,2.40
2019-04-10T12:22:14.269Z,1.90
2019-04-10T12:24:43.329Z,2.10
2019-04-10T12:27:12.651Z,1.93
2019-04-10T12:29:42.618Z,2.27
2019-04-10T12:32:12.408Z,2.10
2019-04-10T12:34:42.458Z,2.67
2019-04-10T12:37:11.742Z,2.77
2019-04-10T12:39:41.242Z,2.17
2019-04-10T12:42:10.402Z,2.03
2019-04-10T12:44:39.917Z,2.60
2019-04-10T12:47:10.054Z,2.40
2019-04-10T12:49:39.393Z,2.37
2019-04-10T12:52:08.473Z,2.23
2019-04-10T12:54:39.160Z,2.03
2019-04-10T12:57:08.297Z,2.57
2019-04-10T12:59:37.437Z,2.13
2019-04-10T13:02:06.502Z,2.70
2019-04-10T13:04:36.492Z,4.53
2019-04-10T13:07:05.675Z,2.23
2019-04-10T13:09:34.779Z,2.00
2019-04-10T13:12:04.833Z,2.40
2019-04-10T13:14:34.801Z,2.53
2019-04-10T13:17:04.725Z,2.73
2019-04-10T13:19:34.370Z,2.53
2019-04-10T13:22:04.616Z,2.33
2019-04-10T13:24:33.618Z,2.53
2019-04-10T13:27:02.701Z,2.40
2019-04-10T13:29:32.250Z,2.03
2019-04-10T13:32:01.430Z,2.27
2019-04-10T13:34:30.504Z,2.33
2019-04-10T13:36:59.849Z,2.53
2019-04-10T13:39:28.943Z,2.13
2019-04-10T13:41:58.816Z,2.40
2019-04-10T13:44:28.767Z,1.73
2019-04-10T13:46:57.937Z,2.00
2019-04-10T13:49:26.864Z,2.63
2019-04-10T13:51:56.059Z,1.60
2019-04-10T13:54:26.324Z,2.03
2019-04-10T13:56:55.330Z,2.43
2019-04-10T13:59:24.835Z,2.23
2019-04-10T14:01:54.062Z,2.43
2019-04-10T14:04:23.238Z,2.00
2019-04-10T14:06:52.537Z,2.10
2019-04-10T14:09:34.395Z,1.63
2019-04-10T14:11:53.455Z,2.00
2019-04-10T14:14:22.630Z,2.30
2019-04-10T14:16:51.627Z,1.63
2019-04-10T14:19:21.435Z,2.03
2019-04-10T14:21:51.311Z,1.87
2019-04-10T14:24:20.539Z,1.97
2019-04-10T14:26:56.733Z,2.13
2019-04-10T14:29:26.855Z,2.37
2019-04-10T14:32:00.645Z,1.93
2019-04-10T14:34:30.420Z,2.03
2019-04-10T14:36:59.618Z,2.10
2019-04-10T14:39:29.027Z,2.03
2019-04-10T14:41:58.081Z,1.93
2019-04-10T14:44:28.465Z,1.63
2019-04-10T14:46:58.014Z,2.00
2019-04-10T14:49:27.289Z,1.90
2019-04-10T14:51:56.791Z,1.80
2019-04-10T14:54:26.018Z,1.90
2019-04-10T14:56:55.162Z,2.40
2019-04-10T14:59:24.082Z,1.63
2019-04-10T15:01:53.128Z,1.70
2019-04-10T15:04:22.253Z,1.90
2019-04-10T15:06:51.340Z,1.70
2019-04-10T15:09:26.155Z,1.67
2019-04-10T15:11:55.357Z,2.30
2019-04-10T15:14:24.366Z,1.73
2019-04-10T15:16:59.982Z,1.63
2019-04-10T15:19:24.853Z,2.07
2019-04-10T15:21:54.124Z,2.17
2019-04-10T15:24:23.796Z,1.67
2019-04-10T15:26:54.367Z,1.60
2019-04-10T15:29:24.675Z,1.97
2019-04-10T15:31:53.989Z,1.70
2019-04-10T15:34:23.054Z,2.30
2019-04-10T15:36:52.861Z,3.77
2019-04-10T15:39:30.615Z,3.90
2019-04-10T15:41:52.550Z,2.40
2019-04-10T15:44:21.869Z,2.40
2019-04-10T15:46:51.296Z,2.10
2019-04-10T15:49:20.623Z,2.00
2019-04-10T15:51:49.775Z,1.87
2019-04-10T15:54:19.010Z,2.10
2019-04-10T15:56:48.110Z,1.77
2019-04-10T15:59:17.207Z,1.90
2019-04-10T16:01:46.859Z,1.77
2019-04-10T16:04:17.128Z,1.47
2019-04-10T16:06:47.306Z,2.00
2019-04-10T16:09:17.383Z,2.40
2019-04-10T16:11:54.326Z,2.33
2019-04-10T16:14:27.146Z,1.90
2019-04-10T16:17:19.326Z,2.17
2019-04-10T16:20:18.059Z,2.17
2019-04-10T16:23:10.063Z,2.17
2019-04-10T16:25:43.257Z,2.17
2019-04-10T16:28:12.622Z,2.10
2019-04-10T16:30:41.760Z,1.80
2019-04-10T16:33:11.280Z,2.10
2019-04-10T16:35:40.448Z,1.93
2019-04-10T16:38:09.555Z,2.43
2019-04-10T16:40:40.130Z,2.13
2019-04-10T16:43:09.846Z,2.00
2019-04-10T16:45:38.934Z,2.33
2019-04-10T16:48:08.657Z,2.10
2019-04-10T16:50:38.393Z,2.00
2019-04-10T16:53:07.664Z,2.20
2019-04-10T16:55:36.765Z,1.97
2019-04-10T16:58:05.760Z,2.20
2019-04-10T17:00:35.460Z,1.97
2019-04-10T17:03:05.717Z,2.20
2019-04-10T17:05:35.192Z,2.00
2019-04-10T17:08:05.625Z,2.17
2019-04-10T17:10:35.166Z,1.83
2019-04-10T17:13:05.164Z,1.80
2019-04-10T17:15:36.323Z,1.70
2019-04-10T17:18:06.534Z,2.57
2019-04-10T17:20:36.273Z,2.17
2019-04-10T17:23:06.505Z,2.10
2019-04-10T17:25:35.965Z,1.97
2019-04-10T17:28:05.342Z,2.27
2019-04-10T17:30:34.379Z,2.30
2019-04-10T17:33:04.815Z,2.20
2019-04-10T17:35:33.959Z,2.70
2019-04-10T17:38:03.054Z,2.57
2019-04-10T17:40:41.336Z,2.33
2019-04-10T17:43:03.098Z,2.30
2019-04-10T17:45:32.453Z,2.50
2019-04-10T17:48:01.303Z,2.07
2019-04-10T17:50:31.998Z,2.43
2019-04-10T17:53:01.079Z,2.00
2019-04-10T17:55:30.164Z,3.20
2019-04-10T17:57:59.050Z,2.50
2019-04-10T18:00:37.584Z,2.70
2019-04-10T18:03:07.578Z,2.30
2019-04-10T18:05:37.094Z,2.57
2019-04-10T18:08:06.406Z,2.40
2019-04-10T18:10:46.448Z,2.57
2019-04-10T18:13:06.321Z,2.70
2019-04-10T18:15:35.831Z,2.53
2019-04-10T18:18:05.338Z,2.50
2019-04-10T18:20:34.526Z,2.37
2019-04-10T18:23:03.492Z,2.73
2019-04-10T18:25:32.452Z,2.40
2019-04-10T18:28:01.421Z,1.97
2019-04-10T18:30:32.826Z,2.40
2019-04-10T18:33:03.246Z,2.60
2019-04-10T18:35:32.426Z,2.47
2019-04-10T18:38:03.504Z,2.67
2019-04-10T18:40:32.758Z,2.87
2019-04-10T18:43:02.227Z,3.00
2019-04-10T18:45:31.427Z,2.30
2019-04-10T18:48:00.883Z,2.63
2019-04-10T18:50:30.009Z,2.80
2019-04-10T18:52:59.527Z,3.50
2019-04-10T18:55:30.059Z,2.80
2019-04-10T18:57:59.241Z,2.47
2019-04-10T19:00:48.626Z,2.27
2019-04-10T19:03:28.228Z,3.30
2019-04-10T19:06:00.524Z,2.70
2019-04-10T19:08:30.092Z,2.23
2019-04-10T19:11:10.569Z,2.63
2019-04-10T19:13:31.075Z,2.67
2019-04-10T19:16:01.271Z,2.50
2019-04-10T19:18:32.047Z,2.93
2019-04-10T19:21:01.220Z,3.00
2019-04-10T19:23:30.791Z,2.90
2019-04-10T19:25:59.868Z,3.23
2019-04-10T19:28:35.999Z,2.77
2019-04-10T19:31:13.907Z,2.87
2019-04-10T19:33:35.391Z,2.87
2019-04-10T19:36:05.595Z,3.53
2019-04-10T19:38:35.649Z,2.30
2019-04-10T19:41:04.838Z,3.37
2019-04-10T19:43:34.762Z,2.77
2019-04-10T19:46:04.126Z,3.20
2019-04-10T19:48:33.432Z,3.33
2019-04-10T19:51:02.556Z,2.03
2019-04-10T19:53:31.711Z,2.70
2019-04-10T19:56:02.175Z,2.90
2019-04-10T19:58:32.280Z,2.87
2019-04-10T20:01:01.286Z,2.73
2019-04-10T20:03:30.277Z,3.50
2019-04-10T20:06:00.297Z,3.50
2019-04-10T20:08:29.383Z,3.30
2019-04-10T20:10:58.288Z,2.90
2019-04-10T20:13:27.356Z,3.23
2019-04-10T20:15:56.487Z,2.67
2019-04-10T20:18:26.345Z,3.07
2019-04-10T20:20:55.512Z,3.70
2019-04-10T20:23:24.673Z,2.97
2019-04-10T20:25:54.558Z,2.57
2019-04-10T20:28:24.677Z,3.73
2019-04-10T20:30:55.239Z,2.80
2019-04-10T20:33:24.986Z,2.70
2019-04-10T20:35:53.921Z,3.33
2019-04-10T20:38:23.151Z,3.30
2019-04-10T20:40:52.038Z,2.87
2019-04-10T20:43:21.010Z,3.37
2019-04-10T20:45:49.954Z,3.83
2019-04-10T20:48:18.954Z,2.77
2019-04-10T20:50:48.104Z,3.43
2019-04-10T20:53:17.942Z,3.50
2019-04-10T20:55:48.156Z,2.27
2019-04-10T20:58:18.672Z,2.67
2019-04-10T21:00:49.696Z,2.50
2019-04-10T21:03:19.672Z,2.63
2019-04-10T21:05:49.089Z,3.83
2019-04-10T21:08:18.038Z,3.07
2019-04-10T21:10:47.210Z,2.97
2019-04-10T21:13:17.056Z,3.20
2019-04-10T21:15:46.342Z,3.27
2019-04-10T21:18:15.416Z,3.43
2019-04-10T21:20:45.233Z,2.80
2019-04-10T21:23:15.116Z,2.97
2019-04-10T21:25:44.125Z,3.13
2019-04-10T21:28:14.116Z,2.87
2019-04-10T21:31:01.107Z,3.17
2019-04-10T21:33:49.068Z,2.83
2019-04-10T21:36:18.520Z,3.37
2019-04-10T21:38:48.977Z,3.07
2019-04-10T21:41:18.183Z,3.03
2019-04-10T21:43:47.399Z,3.73
2019-04-10T21:46:16.515Z,2.47
2019-04-10T21:48:46.768Z,3.17
2019-04-10T21:51:16.857Z,2.90
2019-04-10T21:53:47.231Z,2.73
2019-04-10T21:56:16.508Z,3.63
2019-04-10T21:58:46.515Z,2.90
2019-04-10T22:01:16.262Z,2.57
2019-04-10T22:03:46.287Z,3.37
2019-04-10T22:06:37.502Z,3.53
2019-04-10T22:09:34.894Z,3.50
2019-04-10T22:12:21.980Z,2.77
2019-04-10T22:14:41.730Z,3.50
2019-04-10T22:17:11.322Z,3.17
2019-04-10T22:19:40.977Z,3.03
2019-04-10T22:22:11.219Z,2.67
2019-04-10T22:24:40.592Z,2.57
2019-04-10T22:27:09.771Z,3.10
2019-04-10T22:29:39.013Z,3.50
2019-04-10T22:32:08.654Z,2.77
2019-04-10T22:34:38.449Z,3.30
2019-04-10T22:37:07.521Z,3.80
2019-04-10T22:39:36.496Z,2.77
2019-04-10T22:42:06.018Z,3.43
2019-04-10T22:44:41.971Z,3.00
2019-04-10T22:47:07.044Z,3.57
2019-04-10T22:49:37.090Z,3.33
2019-04-10T22:52:06.847Z,3.27
2019-04-10T22:54:36.638Z,2.80
2019-04-10T22:57:06.879Z,3.30
2019-04-10T22:59:35.996Z,3.33
2019-04-10T23:02:10.539Z,3.97
2019-04-10T23:04:35.656Z,3.67
2019-04-10T23:07:05.921Z,3.50
2019-04-10T23:09:36.050Z,3.73
2019-04-10T23:12:05.845Z,3.67
2019-04-10T23:14:34.818Z,3.03
2019-04-10T23:17:04.254Z,2.80
2019-04-10T23:19:34.216Z,2.70
2019-04-10T23:22:03.435Z,3.50
2019-04-10T23:24:32.327Z,3.37
2019-04-10T23:27:02.468Z,4.27
2019-04-10T23:29:32.530Z,3.90
2019-04-10T23:32:01.795Z,3.80
2019-04-10T23:34:30.982Z,3.80
2019-04-10T23:36:59.931Z,3.30
2019-04-10T23:39:30.302Z,3.30
2019-04-10T23:41:59.478Z,3.00
2019-04-10T23:44:29.106Z,3.67
2019-04-10T23:46:58.269Z,3.17
2019-04-10T23:49:27.711Z,3.97
2019-04-10T23:51:56.958Z,3.57
2019-04-10T23:54:27.040Z,3.47
2019-04-10T23:56:56.755Z,3.70
2019-04-10T23:59:26.710Z,3.47
